createdAt,value
2018-09-11T00:01:13.489Z,99.90
2018-09-11T00:03:41.980Z,99.90
2018-09-11T00:06:10.439Z,99.90
2018-09-11T00:08:38.925Z,99.90
2018-09-11T00:11:07.421Z,99.90
2018-09-11T00:13:35.886Z,99.90
2018-09-11T00:16:04.385Z,99.90
2018-09-11T00:18:32.872Z,99.90
2018-09-11T00:21:01.370Z,99.90
2018-09-11T00:23:29.813Z,99.90
2018-09-11T00:25:58.622Z,99.90
2018-09-11T00:28:27.103Z,99.90
2018-09-11T00:30:55.584Z,99.90
2018-09-11T00:33:24.189Z,99.90
2018-09-11T00:35:52.757Z,99.90
2018-09-11T00:38:21.217Z,99.90
2018-09-11T00:40:49.702Z,99.90
2018-09-11T00:43:18.176Z,99.90
2018-09-11T00:45:47.592Z,99.90
2018-09-11T00:48:16.072Z,99.90
2018-09-11T00:50:44.561Z,99.90
2018-09-11T00:53:13.035Z,99.90
2018-09-11T00:55:41.514Z,99.90
2018-09-11T00:58:10.045Z,99.90
2018-09-11T01:00:38.469Z,99.90
2018-09-11T01:03:07.291Z,99.90
2018-09-11T01:05:35.744Z,99.90
2018-09-11T01:08:04.286Z,99.90
2018-09-11T01:10:32.692Z,99.90
2018-09-11T01:13:01.205Z,99.90
2018-09-11T01:15:29.734Z,99.90
2018-09-11T01:17:58.166Z,99.90
2018-09-11T01:20:26.637Z,99.90
2018-09-11T01:22:55.156Z,99.90
2018-09-11T01:25:23.600Z,99.90
2018-09-11T01:27:52.081Z,99.90
2018-09-11T01:30:22.017Z,99.90
2018-09-11T01:32:51.404Z,99.90
2018-09-11T01:35:20.291Z,99.90
2018-09-11T01:37:48.784Z,99.90
2018-09-11T01:40:17.484Z,99.90
2018-09-11T01:42:45.935Z,99.90
2018-09-11T01:45:15.505Z,99.90
2018-09-11T01:47:44.018Z,99.90
2018-09-11T01:50:12.516Z,99.90
2018-09-11T01:52:41.006Z,99.90
2018-09-11T01:55:09.525Z,99.90
2018-09-11T01:57:37.957Z,99.90
2018-09-11T02:00:10.890Z,99.90
2018-09-11T02:02:39.592Z,99.90
2018-09-11T02:05:08.032Z,99.90
2018-09-11T02:07:36.547Z,99.90
2018-09-11T02:10:05.000Z,99.90
2018-09-11T02:12:33.461Z,99.90
2018-09-11T02:15:02.001Z,99.90
2018-09-11T02:17:30.966Z,99.90
2018-09-11T02:19:59.461Z,99.90
2018-09-11T02:22:27.911Z,99.90
2018-09-11T02:24:56.397Z,99.90
2018-09-11T02:27:24.878Z,99.90
2018-09-11T02:29:53.333Z,99.90
2018-09-11T02:32:21.856Z,99.90
2018-09-11T02:34:50.296Z,99.90
2018-09-11T02:37:19.732Z,99.90
2018-09-11T02:39:48.172Z,99.90
2018-09-11T02:42:16.674Z,99.90
2018-09-11T02:51:44.553Z,99.90
2018-09-11T02:54:13.073Z,99.90
2018-09-11T02:56:41.545Z,99.90
2018-09-11T02:59:10.073Z,99.90
2018-09-11T03:01:38.604Z,99.90
2018-09-11T03:04:07.142Z,99.90
2018-09-11T03:06:35.589Z,99.90
2018-09-11T03:09:05.444Z,99.90
2018-09-11T03:11:33.868Z,99.90
2018-09-11T03:14:02.407Z,99.90
2018-09-11T03:16:30.851Z,99.90
2018-09-11T03:18:59.416Z,99.90
2018-09-11T03:21:27.804Z,99.90
2018-09-11T03:23:56.377Z,99.90
2018-09-11T03:26:24.857Z,99.90
2018-09-11T03:28:53.336Z,99.90
2018-09-11T03:31:21.834Z,99.90
2018-09-11T03:33:50.308Z,99.90
2018-09-11T03:36:18.801Z,99.90
2018-09-11T03:38:47.261Z,99.90
2018-09-11T03:41:15.780Z,99.90
2018-09-11T03:43:44.253Z,99.90
2018-09-11T03:46:12.735Z,99.90
2018-09-11T03:48:41.190Z,99.90
2018-09-11T03:51:09.708Z,99.90
2018-09-11T03:53:38.215Z,99.90
2018-09-11T03:56:06.694Z,99.90
2018-09-11T03:58:35.144Z,99.90
2018-09-11T04:01:03.651Z,99.90
2018-09-11T04:03:32.089Z,99.90
2018-09-11T04:06:00.566Z,99.90
2018-09-11T04:08:29.078Z,99.90
2018-09-11T04:10:57.524Z,99.90
2018-09-11T04:13:26.017Z,99.90
2018-09-11T04:15:55.510Z,99.90
2018-09-11T04:18:24.013Z,99.90
2018-09-11T04:20:52.572Z,99.90
2018-09-11T04:23:21.425Z,99.90
2018-09-11T04:25:50.254Z,99.90
2018-09-11T04:28:18.768Z,99.90
2018-09-11T04:30:47.235Z,99.90
2018-09-11T04:33:15.723Z,99.90
2018-09-11T04:35:44.200Z,99.90
2018-09-11T04:38:12.733Z,99.90
2018-09-11T04:40:41.169Z,99.90
2018-09-11T04:43:09.720Z,99.90
2018-09-11T04:45:38.169Z,99.90
2018-09-11T04:48:06.813Z,99.90
2018-09-11T04:50:35.352Z,99.90
2018-09-11T04:53:03.772Z,99.90
2018-09-11T04:55:32.253Z,99.90
2018-09-11T04:58:00.659Z,99.90
2018-09-11T05:00:29.176Z,99.90
2018-09-11T05:02:57.594Z,99.90
2018-09-11T05:05:26.100Z,99.90
2018-09-11T05:07:54.611Z,99.90
2018-09-11T05:10:23.041Z,99.90
2018-09-11T05:12:52.495Z,99.90
2018-09-11T05:15:20.926Z,99.90
2018-09-11T05:17:49.496Z,99.90
2018-09-11T05:20:17.993Z,99.90
2018-09-11T05:22:47.504Z,99.90
2018-09-11T05:25:15.979Z,99.90
2018-09-11T05:27:44.468Z,99.90
2018-09-11T05:30:12.950Z,99.90
2018-09-11T05:32:41.433Z,99.90
2018-09-11T05:35:09.913Z,99.90
2018-09-11T05:37:38.401Z,99.90
2018-09-11T05:40:06.923Z,99.90
2018-09-11T05:42:35.360Z,99.90
2018-09-11T05:45:03.986Z,99.90
2018-09-11T05:47:32.459Z,99.90
2018-09-11T05:50:00.923Z,99.90
2018-09-11T05:52:29.405Z,99.90
2018-09-11T05:54:57.908Z,99.90
2018-09-11T05:57:26.340Z,99.90
2018-09-11T05:59:54.841Z,99.90
2018-09-11T06:02:23.358Z,99.90
2018-09-11T06:04:51.807Z,99.90
2018-09-11T06:07:20.313Z,99.90
2018-09-11T06:09:48.760Z,99.90
2018-09-11T06:12:17.319Z,99.90
2018-09-11T06:14:45.837Z,99.90
2018-09-11T06:17:14.295Z,99.90
2018-09-11T06:19:42.789Z,99.90
2018-09-11T06:22:11.273Z,99.90
2018-09-11T06:24:39.786Z,99.90
2018-09-11T06:27:08.272Z,99.90
2018-09-11T06:29:36.729Z,99.90
2018-09-11T06:32:05.194Z,99.90
2018-09-11T06:34:33.689Z,99.90
2018-09-11T06:37:02.171Z,99.90
2018-09-11T06:39:30.641Z,99.90
2018-09-11T06:41:59.165Z,99.90
2018-09-11T06:44:27.713Z,99.90
2018-09-11T06:46:56.279Z,99.90
2018-09-11T06:49:24.862Z,99.90
2018-09-11T06:51:53.371Z,99.90
2018-09-11T06:54:21.841Z,99.90
2018-09-11T06:56:50.352Z,99.90
2018-09-11T06:59:18.805Z,99.90
2018-09-11T07:01:47.355Z,99.90
2018-09-11T07:04:15.773Z,99.90
2018-09-11T07:06:44.240Z,99.90
2018-09-11T07:09:12.853Z,99.90
2018-09-11T07:11:41.345Z,99.90
2018-09-11T07:14:09.860Z,99.90
2018-09-11T07:16:38.273Z,99.90
2018-09-11T07:19:06.724Z,99.90
2018-09-11T07:21:35.236Z,99.90
2018-09-11T07:24:04.765Z,99.90
2018-09-11T07:26:33.253Z,99.90
2018-09-11T07:29:01.749Z,99.90
2018-09-11T07:31:30.189Z,99.90
2018-09-11T07:33:59.695Z,99.90
2018-09-11T07:36:28.237Z,99.90
2018-09-11T07:38:56.672Z,99.90
2018-09-11T07:41:25.145Z,99.90
2018-09-11T07:44:57.107Z,99.90
2018-09-11T07:47:25.617Z,99.90
2018-09-11T07:49:54.101Z,99.90
2018-09-11T07:52:22.591Z,99.90
2018-09-11T07:54:51.024Z,99.90
2018-09-11T07:57:19.530Z,99.90
2018-09-11T07:59:47.990Z,99.90
2018-09-11T08:02:16.492Z,99.90
2018-09-11T08:04:44.955Z,99.90
2018-09-11T08:07:13.465Z,99.90
2018-09-11T08:09:41.985Z,99.90
2018-09-11T08:12:10.429Z,99.90
2018-09-11T08:14:38.881Z,99.90
2018-09-11T08:17:07.372Z,99.90
2018-09-11T08:19:35.779Z,99.90
2018-09-11T08:22:04.317Z,99.90
2018-09-11T08:24:32.860Z,99.90
2018-09-11T08:27:01.326Z,99.90
2018-09-11T08:29:29.922Z,99.90
2018-09-11T08:31:58.380Z,99.90
2018-09-11T08:34:26.855Z,99.90
2018-09-11T08:36:55.340Z,99.90
2018-09-11T08:39:23.817Z,99.90
2018-09-11T08:41:52.344Z,99.90
2018-09-11T08:44:20.780Z,99.90
2018-09-11T08:46:49.421Z,99.90
2018-09-11T08:49:17.853Z,99.90
2018-09-11T08:51:46.417Z,99.90
2018-09-11T08:54:14.924Z,99.90
2018-09-11T08:56:43.385Z,99.90
2018-09-11T08:59:11.886Z,99.90
2018-09-11T09:01:40.368Z,99.90
2018-09-11T09:04:08.841Z,99.90
2018-09-11T09:06:37.301Z,99.90
2018-09-11T09:09:08.449Z,99.90
2018-09-11T09:11:37.360Z,99.90
2018-09-11T09:14:06.072Z,99.90
2018-09-11T09:16:34.528Z,99.90
2018-09-11T09:19:03.085Z,99.90
2018-09-11T09:21:31.920Z,99.90
2018-09-11T09:24:00.591Z,99.90
2018-09-11T09:26:29.073Z,99.90
2018-09-11T09:28:57.588Z,99.90
2018-09-11T09:31:26.079Z,99.90
2018-09-11T09:33:54.615Z,99.90
2018-09-11T09:36:23.196Z,99.90
2018-09-11T09:38:51.669Z,99.90
2018-09-11T09:41:20.185Z,99.90
2018-09-11T09:43:48.747Z,99.90
2018-09-11T09:46:17.208Z,99.90
2018-09-11T09:48:45.729Z,99.90
2018-09-11T09:51:14.192Z,99.90
2018-09-11T09:53:42.710Z,99.90
2018-09-11T09:56:11.150Z,99.90
2018-09-11T09:58:40.689Z,99.90
2018-09-11T10:01:14.381Z,99.90
2018-09-11T10:03:42.888Z,99.90
2018-09-11T10:06:11.345Z,99.90
2018-09-11T10:08:39.829Z,99.90
2018-09-11T10:11:08.281Z,99.90
2018-09-11T10:13:36.785Z,99.90
2018-09-11T10:16:05.293Z,99.90
2018-09-11T10:18:33.751Z,99.90
2018-09-11T10:21:02.241Z,99.90
2018-09-11T10:23:30.719Z,99.90
2018-09-11T10:25:59.186Z,99.90
2018-09-11T10:28:27.651Z,99.90
2018-09-11T10:30:56.165Z,99.90
2018-09-11T10:33:24.628Z,99.90
2018-09-11T10:35:53.108Z,99.90
2018-09-11T10:38:21.728Z,99.90
2018-09-11T10:40:50.257Z,99.90
2018-09-11T10:43:18.789Z,99.90
2018-09-11T10:45:47.256Z,99.90
2018-09-11T10:48:15.709Z,99.90
2018-09-11T10:50:44.223Z,99.90
2018-09-11T10:53:12.666Z,99.90
2018-09-11T10:55:41.199Z,99.90
2018-09-11T10:58:09.693Z,99.90
2018-09-11T11:00:38.157Z,99.90
2018-09-11T11:03:06.972Z,99.90
2018-09-11T11:05:35.585Z,99.90
2018-09-11T11:08:04.408Z,99.90
2018-09-11T11:10:32.907Z,99.90
2018-09-11T11:13:01.704Z,99.90
2018-09-11T11:15:30.241Z,99.90
2018-09-11T11:17:58.973Z,99.90
2018-09-11T11:20:27.433Z,99.90
2018-09-11T11:22:55.918Z,99.90
2018-09-11T11:25:24.517Z,99.90
2018-09-11T11:27:53.125Z,99.70
2018-09-11T11:30:21.581Z,99.50
2018-09-11T11:32:50.092Z,99.30
2018-09-11T11:35:18.514Z,99.40
2018-09-11T11:37:46.982Z,99.40
2018-09-11T11:40:15.481Z,99.10
2018-09-11T11:42:43.959Z,99.10
2018-09-11T11:45:12.679Z,99.00
2018-09-11T11:47:41.121Z,98.70
2018-09-11T11:50:09.630Z,98.80
2018-09-11T11:52:38.145Z,98.90
2018-09-11T11:55:06.651Z,98.70
2018-09-11T11:57:35.130Z,98.20
2018-09-11T12:00:03.917Z,97.90
2018-09-11T12:02:32.447Z,97.90
2018-09-11T12:05:00.921Z,97.80
2018-09-11T12:07:29.566Z,98.10
2018-09-11T12:09:58.295Z,98.20
2018-09-11T12:12:26.818Z,98.30
2018-09-11T12:14:55.367Z,98.50
2018-09-11T12:17:23.841Z,97.90
2018-09-11T12:19:52.314Z,98.10
2018-09-11T12:22:20.828Z,97.90
2018-09-11T12:24:49.288Z,97.40
2018-09-11T12:27:17.777Z,97.70
2018-09-11T12:29:46.288Z,97.60
2018-09-11T12:32:15.050Z,97.70
2018-09-11T12:34:43.840Z,97.70
2018-09-11T12:37:12.314Z,97.40
2018-09-11T12:39:40.796Z,97.30
2018-09-11T12:42:09.688Z,97.20
2018-09-11T12:44:38.205Z,96.50
2018-09-11T12:47:07.662Z,96.50
2018-09-11T12:49:36.009Z,95.30
2018-09-11T12:52:04.545Z,95.10
2018-09-11T12:54:33.050Z,95.90
2018-09-11T12:57:01.538Z,95.20
2018-09-11T12:59:29.992Z,94.80
2018-09-11T13:01:58.666Z,93.40
2018-09-11T13:04:27.147Z,93.40
2018-09-11T13:06:55.648Z,93.40
2018-09-11T13:09:24.194Z,93.30
2018-09-11T13:11:52.737Z,93.30
2018-09-11T13:14:21.242Z,92.60
2018-09-11T13:16:49.995Z,92.20
2018-09-11T13:19:18.437Z,91.70
2018-09-11T13:21:47.154Z,91.40
2018-09-11T13:24:15.779Z,90.80
2018-09-11T13:26:44.340Z,89.30
2018-09-11T13:29:12.876Z,85.50
2018-09-11T13:31:41.727Z,85.80
2018-09-11T13:34:10.260Z,86.00
2018-09-11T13:36:38.728Z,83.10
2018-09-11T13:39:09.462Z,83.00
2018-09-11T13:41:37.976Z,82.90
2018-09-11T13:44:06.555Z,80.00
2018-09-11T13:46:35.019Z,79.40
2018-09-11T13:49:03.510Z,78.60
2018-09-11T13:51:32.401Z,77.90
2018-09-11T13:54:00.872Z,77.50
2018-09-11T13:56:29.371Z,74.70
2018-09-11T13:58:57.854Z,74.70
2018-09-11T14:01:26.332Z,73.50
2018-09-11T14:03:54.787Z,72.80
2018-09-11T14:06:24.329Z,70.70
2018-09-11T14:08:52.892Z,70.60
2018-09-11T14:11:21.406Z,69.90
2018-09-11T14:13:49.862Z,70.70
2018-09-11T14:16:18.413Z,73.10
2018-09-11T14:18:46.856Z,73.50
2018-09-11T14:21:15.369Z,75.10
2018-09-11T14:23:45.416Z,76.90
2018-09-11T14:26:13.967Z,77.70
2018-09-11T14:28:44.890Z,77.80
2018-09-11T14:31:13.392Z,78.20
2018-09-11T14:33:42.005Z,78.80
2018-09-11T14:36:12.640Z,78.60
2018-09-11T14:38:41.249Z,79.10
2018-09-11T14:41:09.998Z,79.70
2018-09-11T14:43:38.964Z,80.30
2018-09-11T14:46:07.470Z,80.90
2018-09-11T14:48:37.081Z,81.90
2018-09-11T14:51:06.207Z,81.00
2018-09-11T14:53:36.046Z,79.80
2018-09-11T14:56:04.792Z,80.40
2018-09-11T14:58:34.020Z,79.50
2018-09-11T15:01:02.619Z,78.40
2018-09-11T15:03:32.096Z,78.70
2018-09-11T15:06:00.683Z,78.30
2018-09-11T15:08:29.185Z,79.10
2018-09-11T15:10:57.659Z,79.80
2018-09-11T15:13:26.287Z,80.90
2018-09-11T15:15:54.807Z,81.40
2018-09-11T15:18:23.640Z,80.90
2018-09-11T15:20:52.121Z,80.90
2018-09-11T15:23:20.666Z,81.20
2018-09-11T15:25:49.162Z,81.70
2018-09-11T15:28:17.753Z,81.60
2018-09-11T15:30:46.212Z,81.30
2018-09-11T15:33:14.800Z,81.40
2018-09-11T15:35:43.293Z,81.80
2018-09-11T15:38:11.768Z,81.90
2018-09-11T15:40:40.253Z,82.80
2018-09-11T15:43:10.992Z,83.90
2018-09-11T15:45:40.475Z,84.20
2018-09-11T15:48:08.973Z,83.90
2018-09-11T15:50:37.577Z,83.50
2018-09-11T15:53:06.769Z,83.90
2018-09-11T15:55:35.549Z,84.00
2018-09-11T15:58:04.340Z,83.00
2018-09-11T16:00:32.874Z,82.30
2018-09-11T16:03:01.374Z,82.30
2018-09-11T16:05:29.872Z,82.10
2018-09-11T16:07:58.375Z,82.80
2018-09-11T16:10:26.925Z,83.10
2018-09-11T16:12:55.568Z,83.10
2018-09-11T16:15:24.096Z,83.40
2018-09-11T16:17:52.622Z,84.70
2018-09-11T16:20:21.084Z,85.40
2018-09-11T16:22:49.539Z,86.40
2018-09-11T16:25:18.016Z,87.00
2018-09-11T16:27:46.516Z,87.30
2018-09-11T16:30:15.508Z,87.70
2018-09-11T16:32:44.100Z,87.40
2018-09-11T16:35:12.577Z,87.50
2018-09-11T16:37:41.057Z,88.00
2018-09-11T16:40:09.810Z,86.90
2018-09-11T16:42:39.428Z,87.50
2018-09-11T16:45:09.242Z,87.80
2018-09-11T16:47:38.668Z,88.30
2018-09-11T16:50:08.596Z,88.10
2018-09-11T16:52:37.064Z,88.10
2018-09-11T16:55:05.892Z,88.30
2018-09-11T16:57:34.332Z,88.20
2018-09-11T17:00:02.912Z,87.80
2018-09-11T17:02:31.495Z,88.20
2018-09-11T17:05:00.068Z,87.20
2018-09-11T17:08:31.678Z,87.00
2018-09-11T17:11:00.182Z,86.90
2018-09-11T17:13:28.812Z,87.10
2018-09-11T17:15:57.613Z,87.20
2018-09-11T17:18:26.125Z,88.00
2018-09-11T17:20:54.901Z,87.40
2018-09-11T17:23:23.339Z,87.70
2018-09-11T17:25:51.860Z,87.90
2018-09-11T17:35:19.661Z,88.70
2018-09-11T17:37:48.193Z,90.20
2018-09-11T17:40:16.831Z,90.00
2018-09-11T17:42:45.421Z,90.20
2018-09-11T17:45:13.930Z,90.20
2018-09-11T17:47:42.426Z,90.40
2018-09-11T17:50:11.025Z,90.40
2018-09-11T17:52:39.551Z,90.50
2018-09-11T17:55:08.084Z,90.60
2018-09-11T17:57:36.856Z,91.00
2018-09-11T18:00:05.594Z,90.90
2018-09-11T18:02:34.822Z,91.10
2018-09-11T18:05:04.340Z,91.40
2018-09-11T18:07:33.084Z,91.40
2018-09-11T18:10:01.597Z,91.60
2018-09-11T18:12:30.046Z,91.80
2018-09-11T18:14:58.586Z,91.90
2018-09-11T18:17:26.993Z,92.10
2018-09-11T18:19:55.713Z,92.30
2018-09-11T18:22:24.687Z,92.30
2018-09-11T18:24:54.601Z,92.50
2018-09-11T18:27:23.159Z,92.60
2018-09-11T18:29:51.743Z,92.90
2018-09-11T18:32:20.279Z,93.10
2018-09-11T18:34:48.833Z,93.10
2018-09-11T18:37:17.372Z,93.30
2018-09-11T18:39:45.943Z,93.50
2018-09-11T18:42:14.501Z,93.60
2018-09-11T18:44:43.008Z,93.80
2018-09-11T18:47:11.506Z,94.00
2018-09-11T18:49:39.981Z,94.20
2018-09-11T18:52:08.430Z,94.40
2018-09-11T18:54:36.959Z,94.60
2018-09-11T18:57:05.447Z,94.70
2018-09-11T18:59:33.996Z,95.10
2018-09-11T19:02:02.494Z,95.40
2018-09-11T19:04:30.948Z,95.60
2018-09-11T19:06:59.452Z,95.70
2018-09-11T19:09:27.917Z,95.80
2018-09-11T19:11:56.393Z,96.10
2018-09-11T19:14:24.941Z,96.50
2018-09-11T19:16:53.429Z,96.80
2018-09-11T19:19:21.997Z,96.80
2018-09-11T19:21:50.748Z,96.90
2018-09-11T19:24:19.244Z,97.10
2018-09-11T19:26:49.663Z,97.70
2018-09-11T19:29:18.122Z,97.70
2018-09-11T19:31:46.727Z,98.10
2018-09-11T19:34:15.285Z,98.50
2018-09-11T19:36:45.806Z,98.50
2018-09-11T19:39:14.369Z,98.90
2018-09-11T19:41:42.870Z,99.30
2018-09-11T19:44:11.697Z,99.30
2018-09-11T19:46:40.159Z,99.80
2018-09-11T19:49:08.625Z,99.90
2018-09-11T19:51:37.115Z,99.90
2018-09-11T19:54:06.016Z,99.90
2018-09-11T19:56:36.248Z,99.90
2018-09-11T19:59:04.710Z,99.90
2018-09-11T20:01:33.265Z,99.90
2018-09-11T20:04:01.914Z,99.90
2018-09-11T20:06:30.362Z,99.90
2018-09-11T20:08:58.857Z,99.90
2018-09-11T20:11:27.430Z,99.90
2018-09-11T20:13:56.937Z,99.90
2018-09-11T20:16:25.572Z,99.90
2018-09-11T20:18:54.193Z,99.90
2018-09-11T20:21:22.659Z,99.90
2018-09-11T20:23:51.829Z,99.90
2018-09-11T20:26:20.365Z,99.90
2018-09-11T20:28:48.875Z,99.90
2018-09-11T20:31:24.594Z,99.90
2018-09-11T20:33:53.071Z,99.90
2018-09-11T20:36:22.033Z,99.90
2018-09-11T20:38:50.591Z,99.90
2018-09-11T20:41:19.196Z,99.90
2018-09-11T20:43:47.761Z,99.90
2018-09-11T20:46:16.197Z,99.90
2018-09-11T20:48:44.681Z,99.90
2018-09-11T20:51:13.273Z,99.90
2018-09-11T20:53:41.750Z,99.90
2018-09-11T20:56:10.242Z,99.90
2018-09-11T20:58:38.732Z,99.90
2018-09-11T21:01:07.366Z,99.90
2018-09-11T21:03:35.913Z,99.90
2018-09-11T21:06:05.566Z,99.90
2018-09-11T21:08:34.112Z,99.90
2018-09-11T21:11:02.596Z,99.90
2018-09-11T21:13:31.025Z,99.90
2018-09-11T21:15:59.533Z,99.90
2018-09-11T21:18:28.048Z,99.90
2018-09-11T21:20:56.536Z,99.90
2018-09-11T21:23:24.979Z,99.90
2018-09-11T21:25:53.466Z,99.90
2018-09-11T21:28:21.940Z,99.90
2018-09-11T21:30:50.511Z,99.90
2018-09-11T21:33:18.997Z,99.90
2018-09-11T21:35:47.500Z,99.90
2018-09-11T21:38:15.932Z,99.90
2018-09-11T21:40:44.473Z,99.90
2018-09-11T21:43:12.908Z,99.90
2018-09-11T21:45:41.409Z,99.90
2018-09-11T21:48:09.913Z,99.90
2018-09-11T21:50:38.373Z,99.90
2018-09-11T21:53:06.777Z,99.90
2018-09-11T21:55:35.375Z,99.90
2018-09-11T21:58:04.125Z,99.90
2018-09-11T22:00:32.619Z,99.90
2018-09-11T22:03:04.123Z,99.90
2018-09-11T22:05:32.958Z,99.90
2018-09-11T22:08:01.522Z,99.90
2018-09-11T22:10:29.972Z,99.90
2018-09-11T22:14:23.004Z,99.90
2018-09-11T22:16:51.425Z,99.90
2018-09-11T22:19:19.992Z,99.90
2018-09-11T22:21:48.574Z,99.90
2018-09-11T22:24:16.996Z,99.90
2018-09-11T22:26:45.489Z,99.90
2018-09-11T22:29:13.985Z,99.90
2018-09-11T22:31:42.410Z,99.90
2018-09-11T22:34:10.944Z,99.90
2018-09-11T22:36:39.407Z,99.90
2018-09-11T22:39:08.812Z,99.90
2018-09-11T22:41:37.644Z,99.90
2018-09-11T22:44:06.441Z,99.90
2018-09-11T22:46:34.922Z,99.90
2018-09-11T22:49:03.383Z,99.90
2018-09-11T22:51:31.849Z,99.90
2018-09-11T22:54:00.281Z,99.90
2018-09-11T22:56:28.812Z,99.90
2018-09-11T22:58:57.266Z,99.90
2018-09-11T23:01:25.771Z,99.90
2018-09-11T23:03:54.210Z,99.90
2018-09-11T23:06:22.695Z,99.90
2018-09-11T23:08:51.208Z,99.90
2018-09-11T23:11:19.795Z,99.90
2018-09-11T23:13:48.329Z,99.90
2018-09-11T23:16:16.880Z,99.90
2018-09-11T23:18:45.352Z,99.90
2018-09-11T23:21:13.798Z,99.90
2018-09-11T23:23:42.298Z,99.90
2018-09-11T23:26:10.782Z,99.90
2018-09-11T23:28:39.258Z,99.90
2018-09-11T23:31:08.054Z,99.90
2018-09-11T23:33:36.540Z,99.90
2018-09-11T23:36:05.002Z,99.90
2018-09-11T23:38:33.485Z,99.90
2018-09-11T23:41:02.038Z,99.90
2018-09-11T23:43:30.459Z,99.90
2018-09-11T23:45:58.953Z,99.90
2018-09-11T23:48:27.420Z,99.90
2018-09-11T23:50:55.917Z,99.90
2018-09-11T23:53:24.368Z,99.90
2018-09-11T23:55:52.900Z,99.90
2018-09-11T23:58:21.342Z,99.90
